Time;durP1;ratioP1;P1;durP2;ratioP2;P2;SDS_P1;SDS_P2;PMS_P1;PMS_P2;Temp;Humidity;BMP_temperature;BMP_pressure;BME280_temperature;BME280_humidity;BME280_pressure;Samples;Min_cycle;Max_cycle;Signal;HPM_P1;HPM_P2
2021/12/19 00:00:23;;;;;;;9.77;4.15;;;7.40;99.90;;;;;;5014473;28;20041;-82
2021/12/19 00:03:33;;;;;;;8.73;4.60;;;7.40;99.90;;;;;;5017979;28;20154;-81
2021/12/19 00:11:03;;;;;;;6.32;3.17;;;7.40;99.90;;;;;;5073528;28;20110;-82
2021/12/19 00:13:29;;;;;;;6.63;3.72;;;7.40;99.90;;;;;;5049027;28;20037;-82
2021/12/19 00:15:56;;;;;;;8.70;3.78;;;7.40;99.90;;;;;;5031242;28;20037;-82
2021/12/19 00:18:22;;;;;;;7.72;3.70;;;8.20;99.90;;;;;;5049689;28;20049;-82
2021/12/19 00:20:49;;;;;;;6.82;4.05;;;7.40;99.90;;;;;;5034776;28;20047;-81
2021/12/19 00:23:15;;;;;;;9.82;4.20;;;7.40;99.90;;;;;;5049501;28;20047;-81
2021/12/19 00:25:42;;;;;;;9.85;5.30;;;7.40;99.90;;;;;;5007879;28;20040;-81
2021/12/19 00:28:08;;;;;;;12.75;5.20;;;7.70;99.90;;;;;;5033483;28;20041;-81
2021/12/19 00:30:34;;;;;;;10.20;5.18;;;7.40;99.90;;;;;;5017133;28;20033;-82
2021/12/19 00:33:00;;;;;;;10.38;4.82;;;7.40;99.90;;;;;;5017641;28;20033;-82
2021/12/19 00:35:26;;;;;;;9.55;6.10;;;7.40;99.90;;;;;;5032808;28;20037;-82
2021/12/19 00:37:52;;;;;;;10.32;6.03;;;7.50;99.90;;;;;;5040862;28;20072;-82
2021/12/19 00:40:19;;;;;;;12.30;6.35;;;7.80;99.90;;;;;;5010788;28;20056;-82
2021/12/19 00:42:51;;;;;;;11.00;6.40;;;7.50;99.90;;;;;;5051442;28;20084;-82
2021/12/19 00:45:27;;;;;;;11.82;6.82;;;7.50;99.90;;;;;;5011153;28;20042;-82
2021/12/19 00:47:53;;;;;;;16.00;7.75;;;7.40;99.90;;;;;;5011503;28;20440;-82
2021/12/19 00:50:19;;;;;;;14.02;6.75;;;8.30;99.90;;;;;;5027585;28;20049;-82
2021/12/19 00:52:46;;;;;;;12.27;7.68;;;7.40;99.90;;;;;;5008986;28;20087;-81
2021/12/19 00:55:16;;;;;;;15.43;8.30;;;7.40;99.90;;;;;;5023504;28;20050;-81
2021/12/19 00:57:42;;;;;;;17.77;7.95;;;7.40;99.90;;;;;;5037018;28;20037;-81
2021/12/19 01:00:10;;;;;;;15.73;7.40;;;7.40;99.90;;;;;;4996207;28;20511;-82
2021/12/19 01:02:36;;;;;;;12.00;6.38;;;7.40;99.90;;;;;;5040293;28;20542;-81
2021/12/19 01:05:04;;;;;;;14.85;7.07;;;7.30;99.90;;;;;;5030171;28;20084;-82
2021/12/19 01:07:30;;;;;;;11.63;6.28;;;7.40;99.90;;;;;;5033993;28;20052;-82
2021/12/19 01:09:55;;;;;;;7.47;4.70;;;7.40;99.90;;;;;;4999403;28;20448;-82
2021/12/19 01:12:22;;;;;;;8.18;4.93;;;7.40;99.90;;;;;;5031802;28;20029;-81
2021/12/19 01:14:48;;;;;;;10.15;4.88;;;7.50;99.90;;;;;;5027704;28;20116;-81
2021/12/19 01:17:14;;;;;;;9.15;4.32;;;7.40;99.90;;;;;;4994805;28;20123;-81
2021/12/19 01:19:40;;;;;;;5.88;2.95;;;7.80;99.90;;;;;;5052651;28;20047;-82
2021/12/19 01:22:06;;;;;;;9.57;3.95;;;7.50;99.90;;;;;;5028146;28;20037;-82
2021/12/19 01:24:32;;;;;;;6.75;3.50;;;7.60;99.90;;;;;;5016090;28;20036;-82
2021/12/19 01:26:58;;;;;;;5.03;2.33;;;7.40;99.90;;;;;;5014014;28;20033;-81
2021/12/19 01:29:23;;;;;;;3.40;2.00;;;7.40;99.90;;;;;;5026948;28;20056;-81
2021/12/19 01:31:49;;;;;;;3.65;2.30;;;7.40;99.90;;;;;;5041857;28;20482;-81
2021/12/19 01:34:15;;;;;;;6.78;2.90;;;7.40;99.90;;;;;;5047537;28;20033;-81
2021/12/19 01:36:42;;;;;;;5.35;2.33;;;7.40;99.90;;;;;;5008219;28;20404;-83
2021/12/19 01:39:09;;;;;;;4.22;1.80;;;7.40;99.90;;;;;;5000059;28;20044;-82
2021/12/19 01:41:42;;;;;;;2.78;1.80;;;7.40;99.90;;;;;;5046502;28;20037;-82
2021/12/19 01:44:09;;;;;;;2.75;1.15;;;7.50;99.90;;;;;;5042121;28;20535;-82
2021/12/19 01:46:35;;;;;;;3.15;1.15;;;7.40;99.90;;;;;;5008390;28;20037;-82
2021/12/19 01:49:01;;;;;;;3.08;1.20;;;7.30;99.90;;;;;;5016526;28;20040;-82
2021/12/19 01:51:27;;;;;;;1.88;0.90;;;7.30;99.90;;;;;;5030920;28;20404;-82
2021/12/19 01:53:53;;;;;;;2.50;1.10;;;7.30;99.90;;;;;;5057908;28;20049;-82
2021/12/19 01:56:19;;;;;;;1.67;0.82;;;7.30;99.90;;;;;;5000239;28;20047;-81
2021/12/19 01:58:46;;;;;;;2.42;0.80;;;7.30;99.90;;;;;;5029222;28;20393;-81
2021/12/19 02:01:12;;;;;;;1.73;0.80;;;7.30;99.90;;;;;;5021356;28;20043;-81
2021/12/19 02:03:38;;;;;;;1.65;1.00;;;7.30;99.90;;;;;;5008363;28;20828;-81
2021/12/19 02:06:05;;;;;;;0.80;0.60;;;7.40;99.90;;;;;;5005132;28;20049;-81
2021/12/19 02:08:30;;;;;;;1.20;0.75;;;7.20;99.90;;;;;;5049478;28;20485;-81
2021/12/19 02:10:58;;;;;;;1.20;0.50;;;6.90;99.90;;;;;;5011231;28;20030;-82
2021/12/19 02:13:23;;;;;;;2.35;0.70;;;7.20;99.90;;;;;;5047031;28;20037;-82
2021/12/19 02:15:50;;;;;;;1.90;0.60;;;7.20;99.90;;;;;;5015072;28;20045;-82
2021/12/19 02:18:18;;;;;;;0.60;0.47;;;7.10;99.90;;;;;;5001998;28;20034;-82
2021/12/19 02:20:56;;;;;;;2.53;0.77;;;7.70;99.90;;;;;;5041883;28;20087;-82
2021/12/19 02:23:24;;;;;;;1.08;0.70;;;7.20;99.90;;;;;;5001968;28;20056;-82
2021/12/19 02:25:50;;;;;;;2.72;0.77;;;7.90;99.90;;;;;;4990480;28;20517;-81
2021/12/19 02:28:17;;;;;;;1.10;0.70;;;7.10;99.90;;;;;;5008477;28;20034;-81
2021/12/19 02:30:43;;;;;;;2.75;0.80;;;7.10;99.90;;;;;;4990862;28;20037;-81
2021/12/19 02:33:13;;;;;;;1.83;0.80;;;7.10;99.90;;;;;;5028357;28;20041;-81
2021/12/19 02:35:42;;;;;;;1.33;0.70;;;7.20;99.90;;;;;;5018381;28;20053;-82
2021/12/19 02:49:36;;;;;;;2.42;1.10;;;7.20;99.90;;;;;;5046096;28;20127;-82
2021/12/19 02:52:09;;;;;;;2.88;0.90;;;7.10;99.90;;;;;;5006375;28;20493;-81
2021/12/19 02:54:35;;;;;;;2.28;0.70;;;7.20;99.90;;;;;;5033222;28;20037;-81
2021/12/19 02:57:01;;;;;;;1.63;0.70;;;7.60;99.90;;;;;;5008828;28;20037;-82
2021/12/19 02:59:27;;;;;;;1.13;0.70;;;7.10;99.90;;;;;;4993667;28;20104;-82
2021/12/19 03:01:53;;;;;;;0.93;0.52;;;7.10;99.90;;;;;;5022939;28;20436;-82
2021/12/19 03:04:22;;;;;;;1.48;0.82;;;7.10;99.90;;;;;;4996816;28;20065;-82
2021/12/19 03:06:48;;;;;;;2.30;0.70;;;7.10;99.90;;;;;;5002715;28;20056;-81
2021/12/19 03:09:25;;;;;;;2.05;0.93;;;7.10;99.90;;;;;;4995188;28;20295;-82
2021/12/19 03:12:08;;;;;;;2.83;0.98;;;7.10;99.90;;;;;;5007137;28;20049;-81
2021/12/19 03:20:03;;;;;;;3.97;1.63;;;7.10;99.90;;;;;;5024484;28;20048;-82
2021/12/19 03:22:30;;;;;;;3.28;1.13;;;7.10;99.90;;;;;;5042324;28;20049;-82
2021/12/19 03:24:55;;;;;;;3.03;1.30;;;7.30;99.90;;;;;;5027204;28;20034;-82
2021/12/19 03:27:21;;;;;;;1.95;1.20;;;7.40;99.90;;;;;;4977446;28;20080;-81
2021/12/19 03:29:47;;;;;;;3.13;1.10;;;7.10;99.90;;;;;;4995684;28;20075;-81
2021/12/19 03:32:12;;;;;;;2.22;1.10;;;7.30;99.90;;;;;;5013494;28;21583;-82
2021/12/19 03:34:39;;;;;;;3.22;1.20;;;7.10;99.90;;;;;;5024673;28;20528;-82
2021/12/19 03:37:05;;;;;;;2.15;0.90;;;7.10;99.90;;;;;;4995327;28;20552;-81
2021/12/19 03:39:44;;;;;;;2.85;1.10;;;7.00;99.90;;;;;;5005397;28;20042;-81
2021/12/19 03:42:10;;;;;;;2.90;1.02;;;7.10;99.90;;;;;;4966447;28;20049;-82
2021/12/19 03:44:35;;;;;;;2.15;0.88;;;6.90;99.90;;;;;;4996535;28;20036;-82
2021/12/19 03:47:01;;;;;;;2.97;0.90;;;7.00;99.90;;;;;;4983656;28;20102;-81
2021/12/19 03:49:27;;;;;;;2.90;0.70;;;6.90;99.90;;;;;;5022576;28;20433;-81
2021/12/19 03:51:53;;;;;;;2.00;0.75;;;6.90;99.90;;;;;;5035507;28;20505;-82
2021/12/19 03:54:19;;;;;;;2.03;0.90;;;6.90;99.90;;;;;;4995187;28;20029;-82
2021/12/19 03:56:44;;;;;;;2.72;0.65;;;6.80;99.90;;;;;;5020324;28;20098;-81
2021/12/19 03:59:10;;;;;;;1.88;0.77;;;8.20;99.90;;;;;;4968298;28;20045;-81
2021/12/19 04:01:36;;;;;;;2.83;0.50;;;6.80;99.90;;;;;;5036738;28;20036;-81
2021/12/19 04:04:02;;;;;;;2.85;0.70;;;7.10;99.90;;;;;;5005202;28;20122;-81
2021/12/19 04:06:28;;;;;;;4.57;1.13;;;6.80;99.90;;;;;;5051691;28;20053;-81
2021/12/19 04:08:56;;;;;;;2.67;1.10;;;6.80;99.90;;;;;;5022822;28;20040;-81
2021/12/19 04:11:24;;;;;;;2.65;0.82;;;6.80;99.90;;;;;;5048167;28;20041;-81
2021/12/19 04:13:50;;;;;;;1.73;0.50;;;6.80;99.90;;;;;;5050690;28;20084;-81
2021/12/19 04:16:16;;;;;;;3.50;0.57;;;6.80;99.90;;;;;;5030907;28;20084;-81
2021/12/19 04:18:41;;;;;;;2.35;0.90;;;6.70;99.90;;;;;;5016477;28;20076;-82
2021/12/19 04:21:07;;;;;;;2.03;0.80;;;7.10;99.90;;;;;;5048162;28;20040;-82
2021/12/19 04:23:33;;;;;;;3.47;0.80;;;6.80;99.90;;;;;;5029663;28;20041;-82
2021/12/19 04:25:58;;;;;;;1.65;0.70;;;7.70;99.90;;;;;;5013633;28;20519;-81
2021/12/19 04:28:24;;;;;;;3.03;0.90;;;6.80;99.90;;;;;;5014964;28;20037;-82
2021/12/19 04:30:50;;;;;;;2.28;0.90;;;6.80;99.90;;;;;;5013378;28;20025;-81
2021/12/19 04:33:17;;;;;;;3.90;1.05;;;6.80;99.90;;;;;;5050061;28;20040;-81
2021/12/19 04:35:44;;;;;;;3.22;1.02;;;6.80;99.90;;;;;;5012263;28;20277;-82
2021/12/19 04:54:32;;;;;;;5.47;2.25;;;6.80;99.90;;;;;;4984025;28;20041;-82
2021/12/19 05:02:16;;;;;;;11.80;3.33;;;6.90;99.90;;;;;;5066913;28;20049;-81
2021/12/19 05:15:31;;;;;;;15.73;4.95;;;8.20;99.90;;;;;;5028711;28;20052;-81
2021/12/19 05:18:02;;;;;;;15.82;5.22;;;7.00;99.90;;;;;;5024751;28;20041;-81
2021/12/19 05:20:29;;;;;;;10.18;5.30;;;7.30;99.90;;;;;;5075224;28;20064;-80
2021/12/19 05:23:03;;;;;;;12.80;4.90;;;6.90;99.90;;;;;;5048534;28;20489;-82
2021/12/19 05:25:29;;;;;;;17.63;4.50;;;7.00;99.90;;;;;;5052686;28;20105;-82
2021/12/19 05:27:57;;;;;;;10.75;4.13;;;6.90;99.90;;;;;;5032081;28;20463;-82
2021/12/19 05:30:23;;;;;;;19.20;4.53;;;6.90;99.90;;;;;;5031912;28;20116;-81
2021/12/19 05:32:51;;;;;;;8.38;4.03;;;7.90;99.90;;;;;;5033398;28;20048;-82
2021/12/19 05:35:25;;;;;;;14.75;4.85;;;7.00;99.90;;;;;;5065601;28;20091;-81
2021/12/19 05:46:05;;;;;;;11.88;5.03;;;7.00;99.90;;;;;;5066963;28;20119;-81
2021/12/19 05:48:31;;;;;;;14.93;5.07;;;7.00;99.90;;;;;;5027763;28;20106;-82
2021/12/19 05:50:57;;;;;;;17.05;4.97;;;7.00;99.90;;;;;;5015118;28;20036;-81
2021/12/19 05:53:22;;;;;;;20.15;6.47;;;7.00;99.90;;;;;;5013804;28;20469;-81
2021/12/19 05:55:48;;;;;;;24.60;5.82;;;7.00;99.90;;;;;;5029881;28;20041;-81
2021/12/19 05:58:14;;;;;;;21.52;7.85;;;7.20;99.90;;;;;;5065392;28;20376;-81
2021/12/19 06:00:40;;;;;;;17.80;5.43;;;7.00;99.90;;;;;;5061517;28;20300;-81
2021/12/19 06:03:06;;;;;;;18.45;6.25;;;7.00;99.90;;;;;;5033343;28;20052;-82
2021/12/19 06:05:32;;;;;;;17.80;7.13;;;7.00;99.90;;;;;;5047711;28;20111;-81
2021/12/19 06:07:57;;;;;;;21.25;7.00;;;7.00;99.90;;;;;;5024935;28;20060;-81
2021/12/19 06:10:25;;;;;;;22.20;6.97;;;7.00;99.90;;;;;;5011764;28;20045;-81
2021/12/19 06:12:51;;;;;;;20.48;6.43;;;7.00;99.90;;;;;;5031136;28;20033;-82
2021/12/19 06:15:17;;;;;;;23.40;6.97;;;7.00;99.90;;;;;;5028733;28;20063;-82
2021/12/19 06:17:45;;;;;;;18.58;6.45;;;7.00;99.90;;;;;;5048812;28;20033;-82
2021/12/19 06:20:11;;;;;;;18.30;7.72;;;7.00;99.90;;;;;;5050642;28;20082;-81
2021/12/19 06:22:38;;;;;;;12.98;5.57;;;7.00;99.90;;;;;;5065672;28;20055;-82
2021/12/19 06:25:04;;;;;;;14.45;5.82;;;7.10;99.90;;;;;;5057265;28;20072;-81
2021/12/19 06:27:30;;;;;;;14.60;4.70;;;7.10;99.90;;;;;;5003292;28;20037;-81
2021/12/19 06:29:56;;;;;;;16.42;5.78;;;7.20;99.90;;;;;;5045636;28;20120;-82
2021/12/19 06:32:22;;;;;;;15.90;5.65;;;7.10;99.90;;;;;;5045901;28;20080;-81
2021/12/19 06:34:47;;;;;;;19.50;5.88;;;7.20;99.90;;;;;;5027933;28;20032;-81
2021/12/19 06:37:13;;;;;;;17.58;6.10;;;7.10;99.90;;;;;;5046226;28;20041;-82
2021/12/19 06:39:39;;;;;;;15.43;6.18;;;7.10;99.90;;;;;;5048824;28;20123;-82
2021/12/19 06:42:07;;;;;;;12.18;5.38;;;7.10;99.90;;;;;;5026688;28;20048;-81
2021/12/19 06:44:33;;;;;;;17.30;6.20;;;7.10;99.90;;;;;;5013783;28;20072;-81
2021/12/19 06:47:00;;;;;;;13.23;5.18;;;7.10;99.90;;;;;;5062155;28;20043;-82
2021/12/19 06:49:26;;;;;;;16.95;5.18;;;7.10;99.90;;;;;;5058517;28;20403;-81
2021/12/19 06:51:52;;;;;;;16.63;5.65;;;7.00;99.90;;;;;;5048125;28;20036;-81
2021/12/19 06:54:18;;;;;;;16.50;5.70;;;7.00;99.90;;;;;;5075104;28;20025;-82
2021/12/19 06:56:44;;;;;;;15.88;5.82;;;7.10;99.90;;;;;;5048985;28;20041;-82
2021/12/19 06:59:10;;;;;;;19.52;6.80;;;7.10;99.90;;;;;;5040722;28;20901;-82
2021/12/19 07:01:39;;;;;;;12.23;5.97;;;7.10;99.90;;;;;;5031660;28;20089;-80
2021/12/19 07:04:06;;;;;;;20.67;6.70;;;7.10;99.90;;;;;;5014514;28;20147;-81
2021/12/19 07:06:32;;;;;;;14.88;6.30;;;7.10;99.90;;;;;;5062740;28;20041;-81
2021/12/19 07:08:57;;;;;;;19.83;7.00;;;7.80;99.90;;;;;;5042765;28;20071;-82
2021/12/19 07:11:23;;;;;;;13.27;6.90;;;7.10;99.90;;;;;;5030212;28;20041;-82
2021/12/19 07:13:51;;;;;;;18.90;6.00;;;7.10;99.90;;;;;;5011386;28;20025;-81
2021/12/19 07:16:16;;;;;;;21.85;6.30;;;7.00;99.90;;;;;;5063268;28;20072;-82
2021/12/19 07:18:44;;;;;;;18.65;5.80;;;7.00;99.90;;;;;;5060388;28;20068;-81
2021/12/19 07:21:10;;;;;;;13.77;4.47;;;7.00;99.90;;;;;;5051922;28;20383;-82
2021/12/19 07:23:36;;;;;;;12.80;4.22;;;7.00;99.90;;;;;;5049477;28;20045;-81
2021/12/19 07:26:02;;;;;;;10.98;3.90;;;7.10;99.90;;;;;;5015035;28;21225;-81
2021/12/19 07:28:28;;;;;;;12.13;4.10;;;7.70;99.90;;;;;;5032790;28;20037;-81
2021/12/19 07:30:56;;;;;;;12.82;4.32;;;7.00;99.90;;;;;;5032179;28;20489;-81
2021/12/19 07:33:23;;;;;;;13.15;4.78;;;7.10;99.90;;;;;;5015233;28;20025;-80
2021/12/19 07:35:49;;;;;;;10.10;4.07;;;7.00;99.90;;;;;;5030410;28;20045;-82
2021/12/19 07:38:24;;;;;;;14.20;3.78;;;7.00;99.90;;;;;;5040469;28;20045;-81
2021/12/19 07:40:50;;;;;;;9.27;4.93;;;7.00;99.90;;;;;;5063069;28;20399;-82
2021/12/19 07:43:17;;;;;;;13.95;4.35;;;7.10;99.90;;;;;;5050382;28;20562;-81
2021/12/19 07:45:44;;;;;;;14.02;4.88;;;7.00;99.90;;;;;;5048981;28;20060;-81
2021/12/19 07:48:10;;;;;;;14.07;4.82;;;7.10;99.90;;;;;;5061712;28;20029;-81
2021/12/19 07:50:36;;;;;;;21.50;5.30;;;7.10;99.90;;;;;;5049781;28;20091;-81
2021/12/19 07:53:03;;;;;;;15.80;4.60;;;7.00;99.90;;;;;;5063948;28;20041;-81
2021/12/19 07:55:29;;;;;;;12.07;3.83;;;7.30;99.90;;;;;;5049159;28;20076;-81
2021/12/19 07:57:55;;;;;;;13.15;3.78;;;7.00;99.90;;;;;;5067470;28;20059;-81
2021/12/19 08:00:21;;;;;;;17.00;4.43;;;7.00;99.90;;;;;;5047908;28;20037;-80
2021/12/19 08:02:48;;;;;;;15.77;4.15;;;7.10;99.90;;;;;;5061368;28;20147;-81
2021/12/19 08:05:17;;;;;;;16.92;4.10;;;7.10;99.90;;;;;;5035533;28;20059;-81
2021/12/19 08:07:46;;;;;;;16.17;4.35;;;7.10;99.90;;;;;;5036978;28;20076;-81
2021/12/19 08:11:39;;;;;;;13.23;3.92;;;7.10;99.90;;;;;;5065195;28;20045;-81
2021/12/19 08:13:06;;;;;;;14.48;3.97;;;7.10;99.90;;;;;;5059321;28;20045;-80
2021/12/19 08:15:33;;;;;;;14.90;3.90;;;7.10;99.90;;;;;;5032645;28;20080;-81
2021/12/19 08:17:59;;;;;;;9.13;3.47;;;7.10;99.90;;;;;;5021909;28;20040;-81
2021/12/19 08:20:27;;;;;;;9.65;3.65;;;7.10;99.90;;;;;;5068654;28;20037;-81
2021/12/19 08:22:53;;;;;;;16.77;3.97;;;7.10;99.90;;;;;;5038500;28;20037;-81
2021/12/19 08:25:20;;;;;;;18.13;5.07;;;7.10;99.90;;;;;;5032558;28;20036;-81
2021/12/19 08:27:46;;;;;;;11.52;3.67;;;7.10;99.90;;;;;;5002672;28;20075;-81
2021/12/19 08:30:13;;;;;;;15.48;3.30;;;6.90;99.90;;;;;;5037141;28;20040;-81
2021/12/19 08:32:41;;;;;;;15.10;4.57;;;7.10;99.90;;;;;;5028885;28;20137;-81
2021/12/19 08:35:08;;;;;;;15.98;3.65;;;7.10;99.90;;;;;;5033637;28;20256;-81
2021/12/19 08:37:34;;;;;;;14.65;3.42;;;7.20;99.90;;;;;;5047115;28;20384;-81
2021/12/19 08:40:00;;;;;;;11.18;3.08;;;7.10;99.90;;;;;;5043467;28;20580;-76
2021/12/19 08:42:28;;;;;;;8.70;2.97;;;7.20;99.90;;;;;;5034426;28;20186;-80
2021/12/19 08:44:54;;;;;;;14.02;3.33;;;7.40;99.90;;;;;;5035373;28;20068;-81
2021/12/19 08:47:20;;;;;;;12.95;3.58;;;7.10;99.90;;;;;;5018741;28;20033;-79
2021/12/19 08:49:46;;;;;;;14.60;3.75;;;7.40;99.90;;;;;;5053492;28;20087;-80
2021/12/19 08:52:12;;;;;;;19.75;3.53;;;7.20;99.90;;;;;;5023813;28;20124;-80
2021/12/19 08:54:38;;;;;;;15.25;4.20;;;7.20;99.90;;;;;;5020297;28;20124;-79
2021/12/19 08:57:04;;;;;;;12.60;4.20;;;7.20;99.90;;;;;;5061715;28;20045;-79
2021/12/19 08:59:30;;;;;;;13.95;3.63;;;7.20;99.90;;;;;;5044340;28;20179;-79
2021/12/19 09:02:00;;;;;;;10.68;3.58;;;7.30;99.90;;;;;;5031185;28;20041;-80
2021/12/19 09:04:26;;;;;;;20.75;4.80;;;7.20;99.90;;;;;;5069243;28;20136;-79
2021/12/19 09:06:52;;;;;;;18.55;4.32;;;7.70;99.90;;;;;;5075087;28;20048;-77
2021/12/19 09:09:18;;;;;;;19.35;4.22;;;7.20;99.90;;;;;;5059839;28;20485;-78
2021/12/19 09:11:44;;;;;;;8.30;3.30;;;8.30;99.90;;;;;;5065080;28;20046;-78
2021/12/19 09:14:10;;;;;;;13.60;3.50;;;7.30;99.90;;;;;;5019814;28;20515;-79
2021/12/19 09:16:35;;;;;;;15.88;3.65;;;7.30;99.90;;;;;;5032235;28;20041;-80
2021/12/19 09:19:01;;;;;;;12.07;3.80;;;7.30;99.90;;;;;;5002000;28;20039;-79
2021/12/19 09:21:27;;;;;;;13.85;3.92;;;7.30;99.90;;;;;;5050347;28;20099;-80
2021/12/19 09:23:53;;;;;;;16.73;4.03;;;7.30;99.90;;;;;;5008889;28;20075;-80
2021/12/19 09:26:19;;;;;;;13.85;3.10;;;7.30;99.90;;;;;;5049568;28;20067;-81
2021/12/19 09:28:44;;;;;;;16.02;3.58;;;7.50;99.90;;;;;;5068397;28;20073;-79
2021/12/19 09:31:10;;;;;;;13.40;3.35;;;7.40;99.90;;;;;;5016379;28;20095;-79
2021/12/19 09:33:36;;;;;;;13.70;4.22;;;8.80;99.90;;;;;;5029865;28;20043;-79
2021/12/19 09:36:02;;;;;;;15.05;3.33;;;7.40;99.90;;;;;;5045769;28;20049;-80
2021/12/19 09:38:28;;;;;;;17.27;4.57;;;7.40;99.90;;;;;;4998587;28;20045;-81
2021/12/19 09:41:11;;;;;;;11.48;2.97;;;8.60;99.90;;;;;;5030821;28;20037;-79
2021/12/19 09:43:42;;;;;;;22.02;3.13;;;7.40;99.90;;;;;;5059253;28;20091;-80
2021/12/19 09:46:14;;;;;;;11.20;3.05;;;7.40;99.90;;;;;;5061322;28;20489;-81
2021/12/19 09:48:41;;;;;;;12.95;2.92;;;7.40;99.90;;;;;;5010494;28;20043;-81
2021/12/19 09:51:12;;;;;;;14.68;2.72;;;8.10;99.90;;;;;;5026896;28;20033;-81
2021/12/19 09:53:39;;;;;;;;;;;7.60;99.90;;;;;;5049791;28;20033;-79
2021/12/19 09:56:05;;;;;;;10.88;3.40;;;7.40;99.90;;;;;;5078564;28;20000;-81
2021/12/19 09:58:35;;;;;;;10.10;3.53;;;7.50;99.90;;;;;;5011913;28;20037;-81
2021/12/19 10:01:05;;;;;;;12.27;3.33;;;7.50;99.90;;;;;;5027830;28;20316;-81
2021/12/19 10:03:31;;;;;;;13.23;3.00;;;7.40;99.90;;;;;;5078028;28;20049;-81
2021/12/19 10:06:22;;;;;;;10.32;3.03;;;7.50;99.90;;;;;;5061863;28;20056;-81
2021/12/19 10:09:07;;;;;;;14.50;3.90;;;7.50;99.90;;;;;;5047210;28;20743;-82
2021/12/19 10:11:59;;;;;;;10.25;2.55;;;7.50;99.90;;;;;;5047445;28;20477;-80
2021/12/19 10:14:26;;;;;;;10.32;3.13;;;7.50;99.90;;;;;;5024755;28;20048;-81
2021/12/19 10:16:52;;;;;;;12.18;3.65;;;7.40;99.90;;;;;;5041262;28;20121;-81
2021/12/19 10:19:18;;;;;;;12.35;3.45;;;7.50;99.90;;;;;;5045919;28;20052;-81
2021/12/19 10:21:44;;;;;;;14.90;4.38;;;7.50;99.90;;;;;;5025923;28;20032;-79
2021/12/19 10:24:32;;;;;;;15.60;3.90;;;7.80;99.90;;;;;;5053596;28;20406;-82
2021/12/19 10:26:58;;;;;;;8.48;2.92;;;7.50;99.90;;;;;;5074106;28;20045;-81
2021/12/19 10:29:57;;;;;;;12.05;3.40;;;7.50;99.90;;;;;;5043170;28;20033;-81
2021/12/19 10:32:23;;;;;;;14.20;3.10;;;7.50;99.90;;;;;;5013263;28;20099;-81
2021/12/19 10:34:49;;;;;;;11.38;2.45;;;7.60;99.90;;;;;;5059646;28;20037;-80
2021/12/19 10:37:34;;;;;;;11.07;2.38;;;8.10;99.90;;;;;;5046516;28;20374;-81
2021/12/19 10:40:03;;;;;;;12.57;3.22;;;7.60;99.90;;;;;;5051455;28;20230;-81
2021/12/19 10:42:34;;;;;;;10.90;2.53;;;7.70;99.90;;;;;;5075622;28;20037;-81
2021/12/19 10:47:44;;;;;;;15.57;3.20;;;7.70;99.90;;;;;;5028702;28;20056;-81
2021/12/19 10:50:10;;;;;;;13.32;3.22;;;7.70;99.90;;;;;;5060267;28;20041;-82
2021/12/19 10:52:39;;;;;;;13.13;3.42;;;8.50;99.90;;;;;;5059373;28;20060;-82
2021/12/19 10:55:10;;;;;;;11.45;2.55;;;7.60;99.90;;;;;;5041352;28;20047;-82
2021/12/19 10:57:39;;;;;;;18.15;3.38;;;7.60;99.90;;;;;;5056489;28;20076;-82
2021/12/19 11:00:10;;;;;;;11.93;2.92;;;7.70;99.90;;;;;;5042420;28;20436;-81
2021/12/19 11:02:39;;;;;;;16.10;3.00;;;7.70;99.90;;;;;;5074607;28;20101;-82
2021/12/19 11:05:06;;;;;;;13.23;3.30;;;7.70;99.90;;;;;;5042755;28;20380;-82
2021/12/19 11:07:32;;;;;;;10.75;2.85;;;7.70;99.90;;;;;;5020844;28;20057;-82
2021/12/19 11:09:58;;;;;;;16.48;2.97;;;7.70;99.90;;;;;;5038145;28;20101;-82
2021/12/19 11:12:23;;;;;;;14.00;3.35;;;7.70;99.90;;;;;;5009923;28;20049;-82
2021/12/19 11:14:49;;;;;;;11.93;3.10;;;7.70;99.90;;;;;;5029796;28;20032;-81
2021/12/19 11:17:20;;;;;;;8.48;2.25;;;7.70;99.90;;;;;;5029757;28;20079;-80
2021/12/19 11:19:47;;;;;;;11.60;2.75;;;7.90;99.90;;;;;;5026764;28;20052;-80
2021/12/19 11:22:22;;;;;;;11.63;3.92;;;7.70;99.90;;;;;;4994109;28;20416;-77
2021/12/19 11:24:48;;;;;;;8.60;2.10;;;7.70;99.90;;;;;;5046380;28;20072;-78
2021/12/19 11:27:14;;;;;;;9.88;2.60;;;7.80;99.90;;;;;;5043840;28;20092;-80
2021/12/19 11:29:42;;;;;;;14.48;2.90;;;7.70;99.90;;;;;;5046731;28;20564;-78
2021/12/19 11:32:09;;;;;;;13.77;2.30;;;7.80;99.90;;;;;;5059679;28;20793;-80
2021/12/19 11:34:52;;;;;;;11.35;2.30;;;7.80;99.90;;;;;;5046204;28;20378;-81
2021/12/19 11:37:22;;;;;;;20.42;3.22;;;7.70;99.90;;;;;;5030461;28;20077;-82
2021/12/19 11:39:55;;;;;;;10.80;2.92;;;7.90;99.90;;;;;;5045908;28;20048;-81
2021/12/19 11:42:33;;;;;;;21.75;3.50;;;7.90;99.90;;;;;;5045615;28;20088;-82
2021/12/19 11:47:50;;;;;;;16.92;2.72;;;7.90;99.90;;;;;;5029907;28;20121;-81
2021/12/19 11:50:28;;;;;;;11.40;2.58;;;7.80;99.90;;;;;;5049001;28;20037;-81
2021/12/19 11:52:55;;;;;;;12.30;2.65;;;7.90;99.90;;;;;;5044187;28;20459;-80
2021/12/19 11:55:29;;;;;;;11.00;2.65;;;8.00;99.90;;;;;;5047224;28;20095;-81
2021/12/19 11:58:12;;;;;;;10.80;2.72;;;7.90;99.90;;;;;;5025424;28;20084;-82
2021/12/19 12:00:43;;;;;;;15.60;3.15;;;7.90;99.90;;;;;;5058629;28;20036;-82
2021/12/19 12:03:11;;;;;;;14.20;3.13;;;7.90;99.90;;;;;;5045800;28;20040;-81
2021/12/19 12:05:38;;;;;;;11.43;2.63;;;8.90;99.90;;;;;;5063287;28;20119;-82
2021/12/19 12:08:10;;;;;;;14.02;3.45;;;7.90;99.90;;;;;;5083506;28;20056;-82
2021/12/19 12:10:48;;;;;;;14.15;2.80;;;7.90;99.90;;;;;;5082060;28;20045;-82
2021/12/19 12:13:34;;;;;;;17.90;3.13;;;7.90;99.90;;;;;;5083947;28;20079;-82
2021/12/19 12:16:12;;;;;;;14.88;2.85;;;7.20;99.90;;;;;;5030625;28;20049;-82
2021/12/19 12:18:43;;;;;;;20.75;4.13;;;8.00;99.90;;;;;;5047990;28;20114;-81
2021/12/19 12:21:41;;;;;;;18.77;3.40;;;7.90;99.90;;;;;;5053311;28;20041;-81
2021/12/19 12:24:13;;;;;;;14.77;3.33;;;8.00;99.90;;;;;;5032777;28;20084;-80
2021/12/19 12:26:53;;;;;;;14.80;3.28;;;7.90;99.90;;;;;;5046011;28;20087;-81
2021/12/19 12:29:21;;;;;;;17.55;3.40;;;7.90;99.90;;;;;;5034948;28;20095;-81
2021/12/19 12:31:47;;;;;;;15.55;3.72;;;7.90;99.90;;;;;;5044850;28;20037;-80
2021/12/19 12:34:17;;;;;;;14.38;4.00;;;8.00;99.90;;;;;;5049490;28;20052;-80
2021/12/19 12:36:43;;;;;;;17.15;3.97;;;8.00;99.90;;;;;;5047967;28;20079;-80
2021/12/19 12:39:24;;;;;;;19.58;4.68;;;8.20;99.90;;;;;;5057011;28;20037;-81
2021/12/19 12:42:00;;;;;;;20.83;3.50;;;8.30;99.90;;;;;;5049931;28;20066;-81
2021/12/19 12:44:27;;;;;;;17.17;3.45;;;8.00;99.90;;;;;;5063353;28;20137;-80
2021/12/19 12:46:53;;;;;;;14.05;3.33;;;8.00;99.90;;;;;;5048343;28;20037;-81
2021/12/19 12:49:21;;;;;;;20.65;3.80;;;8.90;99.90;;;;;;5060344;28;20033;-81
2021/12/19 12:51:56;;;;;;;15.68;3.92;;;8.00;99.90;;;;;;5048760;28;20036;-81
2021/12/19 12:54:26;;;;;;;18.63;3.50;;;8.00;99.90;;;;;;5064023;28;20025;-81
2021/12/19 12:56:54;;;;;;;17.10;3.60;;;8.10;99.90;;;;;;5032699;28;20120;-80
2021/12/19 12:59:22;;;;;;;15.13;3.78;;;8.00;99.90;;;;;;5050241;28;20056;-76
2021/12/19 13:01:52;;;;;;;19.80;4.03;;;8.00;99.90;;;;;;5031942;28;20040;-77
2021/12/19 13:04:27;;;;;;;16.08;3.80;;;8.00;99.90;;;;;;5043078;28;20061;-78
2021/12/19 13:06:58;;;;;;;16.48;3.25;;;8.00;99.90;;;;;;5027904;28;20088;-77
2021/12/19 13:09:35;;;;;;;17.73;3.72;;;8.00;99.90;;;;;;5046750;28;20056;-77
2021/12/19 13:12:24;;;;;;;18.60;4.78;;;8.00;99.90;;;;;;5064365;28;20120;-77
2021/12/19 13:15:05;;;;;;;14.25;3.22;;;8.00;99.90;;;;;;5025706;28;20045;-78
2021/12/19 13:17:48;;;;;;;15.57;3.70;;;7.90;99.90;;;;;;5044121;28;20041;-77
2021/12/19 13:20:17;;;;;;;21.38;4.25;;;7.90;99.90;;;;;;5080626;28;20087;-77
2021/12/19 13:22:53;;;;;;;11.43;3.00;;;7.90;99.90;;;;;;5045028;28;20120;-78
2021/12/19 13:25:25;;;;;;;19.23;3.92;;;7.90;99.90;;;;;;5041052;28;20049;-78
2021/12/19 13:27:57;;;;;;;18.13;4.13;;;7.90;99.90;;;;;;5064337;28;20064;-79
2021/12/19 13:30:24;;;;;;;17.30;2.80;;;8.00;99.90;;;;;;5045451;28;20047;-78
2021/12/19 13:32:51;;;;;;;18.33;4.03;;;7.90;99.90;;;;;;5046255;28;20040;-78
2021/12/19 13:35:21;;;;;;;15.43;2.97;;;8.00;99.90;;;;;;5029017;28;20404;-77
2021/12/19 13:38:15;;;;;;;20.00;4.47;;;7.90;99.90;;;;;;5079067;28;20033;-76
2021/12/19 13:40:46;;;;;;;14.60;3.00;;;7.90;99.90;;;;;;5077771;28;20041;-76
2021/12/19 13:43:17;;;;;;;22.38;4.13;;;7.90;99.90;;;;;;5082137;28;20512;-78
2021/12/19 13:45:47;;;;;;;;;;;7.90;99.90;;;;;;5080046;28;20456;-76
2021/12/19 13:48:20;;;;;;;13.50;2.90;;;7.90;99.90;;;;;;5046421;28;19916;-77
2021/12/19 13:50:53;;;;;;;13.35;3.00;;;8.50;99.90;;;;;;5028304;28;20033;-77
2021/12/19 13:53:19;;;;;;;18.17;3.92;;;8.00;99.90;;;;;;5027813;28;20029;-79
2021/12/19 13:55:52;;;;;;;21.63;4.53;;;7.90;99.90;;;;;;5046964;28;20036;-77
2021/12/19 13:58:20;;;;;;;15.18;3.70;;;8.60;99.90;;;;;;5062849;28;20107;-79
2021/12/19 14:00:51;;;;;;;13.95;3.03;;;7.90;99.90;;;;;;5062392;28;20049;-77
2021/12/19 14:03:17;;;;;;;18.10;3.80;;;7.90;99.90;;;;;;5047009;28;20124;-77
2021/12/19 14:05:48;;;;;;;16.58;3.38;;;8.00;99.90;;;;;;5044480;28;20057;-77